Holgate, Ohio
Current Conditions -  °F | °C
As of 5:24 AM on Thursday 23 Oct 2014 (Local Time) from KDFI Reporting Station
Haze Haze  
Wind Chill: 32°   Ceiling: 300
Heat Index: 32°   Visibility: 4mi
Dew Point: 31°   Wind: 0mph
Humidity: 96%   Direction: NA
Pressure: 30.27"   Gusts: NA
Location:  41.25°N, 84.13°W
Report Text: KDFI 230924Z AUTO 00000KT 4SM BR BKN003 00/M01 A3027 RMK AO2 T00001006
Loading
Personal Weather Stations






























Interactive Weather Map New forecast layout! Learn more

10-Day Weather Forecast

Advertisements
Track Severe Weather on mobile